Galva, Kansas
Current Conditions -  °F | °C
As of 2:35 AM on Friday 31 Oct 2014 (Local Time) from KEWK Reporting Station
Broken Clouds Broken Clouds  
Wind Chill: 35°   Ceiling: 1600
Heat Index: 43°   Visibility: 10mi
Dew Point: 34°   Wind: 17mph
Humidity: 70%   Direction: 360°N
Pressure: 30.36"   Gusts: 23mph
Location:  38.38°N, 97.54°W
Report Text: KEWK 310735Z AUTO 36015G20KT 10SM BKN016 06/01 A3036 RMK AO1
Loading
Personal Weather Stations






























Interactive Weather Map New forecast layout! Learn more

10-Day Weather Forecast

Advertisements
Track Severe Weather on mobile